Time;durP1;ratioP1;P1;durP2;ratioP2;P2;SDS_P1;SDS_P2;PMS_P1;PMS_P2;Temp;Humidity;BMP_temperature;BMP_pressure;BME280_temperature;BME280_humidity;BME280_pressure;Samples;Min_cycle;Max_cycle;Signal;HPM_P1;HPM_P2
2021/04/10 00:01:41;;;;;;;26.67;17.63;;;7.60;99.90;;;8.69;81.65;100156.47;5028174;28;20081;-83
2021/04/10 00:04:11;;;;;;;25.15;16.73;;;7.60;99.90;;;8.73;82.90;100164.91;5012862;28;20034;-82
2021/04/10 00:06:37;;;;;;;27.33;17.23;;;7.60;99.90;;;8.58;84.49;100144.22;5011318;28;20029;-82
2021/04/10 00:09:06;;;;;;;30.08;17.13;;;7.60;99.90;;;8.54;84.05;100151.66;5027455;28;20627;-83
2021/04/10 00:11:34;;;;;;;25.85;17.27;;;7.50;99.90;;;8.54;83.58;100148.88;5027733;28;20501;-83
2021/04/10 00:14:04;;;;;;;29.45;16.88;;;7.50;99.90;;;8.63;83.96;100146.75;5011238;28;20493;-83
2021/04/10 00:16:30;;;;;;;23.45;16.60;;;7.50;99.90;;;8.53;84.96;100152.03;5000248;28;20030;-83
2021/04/10 00:18:56;;;;;;;26.83;17.95;;;7.40;99.90;;;8.49;85.13;100149.16;5025267;28;20033;-84
2021/04/10 00:21:25;;;;;;;26.70;17.83;;;7.40;99.90;;;8.51;85.09;100146.81;5031432;28;20033;-83
2021/04/10 00:23:51;;;;;;;26.55;18.05;;;7.40;99.90;;;8.55;85.11;100156.06;5017641;28;20490;-81
2021/04/10 00:26:17;;;;;;;26.13;17.58;;;7.40;99.90;;;8.53;85.71;100147.28;5031270;28;20083;-82
2021/04/10 00:28:42;;;;;;;25.77;18.45;;;7.40;99.90;;;8.54;85.66;100146.09;5031050;28;20034;-84
2021/04/10 00:31:09;;;;;;;26.88;18.40;;;7.40;99.90;;;8.49;85.66;100146.38;5030707;28;20354;-83
2021/04/10 00:33:39;;;;;;;26.52;17.30;;;7.40;99.90;;;8.51;85.96;100141.25;5030841;28;20129;-85
2021/04/10 00:36:10;;;;;;;23.50;17.48;;;7.40;99.90;;;8.48;86.82;100141.19;5031102;28;20115;-85
2021/04/10 00:38:39;;;;;;;30.40;18.58;;;7.30;99.90;;;8.36;86.74;100142.84;5031067;28;20018;-82
2021/04/10 00:41:09;;;;;;;28.13;18.85;;;7.30;99.90;;;8.32;87.14;100146.69;5030575;28;20026;-82
2021/04/10 00:43:35;;;;;;;29.45;18.30;;;7.20;99.90;;;8.33;86.30;100151.09;5030529;28;20053;-83
2021/04/10 00:46:02;;;;;;;31.50;20.23;;;7.20;99.90;;;8.27;86.78;100144.94;5015176;28;20034;-83
2021/04/10 00:48:28;;;;;;;33.22;19.50;;;7.30;99.90;;;8.29;86.73;100151.00;5031080;28;20061;-83
2021/04/10 00:50:55;;;;;;;25.92;19.50;;;7.30;99.90;;;8.26;86.54;100157.22;5030179;28;20469;-83
2021/04/10 00:53:26;;;;;;;28.02;19.35;;;7.30;99.90;;;8.30;87.59;100143.44;5030636;28;20061;-85
2021/04/10 00:56:01;;;;;;;28.13;19.25;;;7.30;99.90;;;8.36;87.31;100148.41;5031336;28;20577;-84
2021/04/10 00:58:27;;;;;;;29.20;18.95;;;7.30;99.90;;;8.35;88.16;100145.97;5032522;28;20030;-82
2021/04/10 01:00:53;;;;;;;33.97;22.70;;;7.30;99.90;;;8.33;88.36;100154.69;5033273;28;20168;-84
2021/04/10 01:03:19;;;;;;;29.75;21.38;;;7.20;99.90;;;8.40;88.21;100159.66;5033756;28;20041;-82
2021/04/10 01:05:44;;;;;;;30.80;20.63;;;7.20;99.90;;;8.39;88.30;100164.38;5033449;28;20025;-82
2021/04/10 01:08:10;;;;;;;29.92;19.90;;;7.20;99.90;;;8.39;88.23;100166.34;5026791;28;20026;-83
2021/04/10 01:10:37;;;;;;;34.33;23.25;;;7.20;99.90;;;8.32;89.55;100160.59;4997424;28;20116;-80
2021/04/10 01:13:41;;;;;;;30.27;21.63;;;7.20;99.90;;;8.36;89.08;100165.09;5012304;28;20064;-83
2021/04/10 01:16:29;;;;;;;32.42;20.17;;;7.20;99.90;;;8.37;88.99;100157.56;4995170;28;20140;-83
2021/04/10 01:19:44;;;;;;;28.17;20.25;;;7.10;99.90;;;8.35;89.28;100157.91;5010107;28;20443;-82
2021/04/10 01:23:02;;;;;;;31.08;20.65;;;7.10;99.90;;;8.34;89.36;100149.94;5010127;28;20027;-83
2021/04/10 01:26:27;;;;;;;30.58;20.40;;;7.10;99.90;;;8.31;89.62;100153.44;5010486;28;20072;-82
2021/04/10 01:29:02;;;;;;;35.67;22.27;;;7.10;99.90;;;8.29;90.44;100151.00;4995377;28;20038;-84
2021/04/10 01:31:45;;;;;;;30.58;22.15;;;7.00;99.90;;;8.27;90.47;100152.47;5022507;28;20038;-81
2021/04/10 01:34:21;;;;;;;35.28;24.13;;;7.00;99.90;;;8.24;90.38;100155.97;5029297;28;20065;-82
2021/04/10 01:36:51;;;;;;;30.88;21.25;;;7.00;99.90;;;8.20;90.75;100155.88;5010803;28;20517;-82
2021/04/10 01:39:19;;;;;;;29.92;21.75;;;7.00;99.90;;;8.16;90.86;100159.69;5011053;28;20045;-82
2021/04/10 01:41:53;;;;;;;30.50;20.35;;;6.90;99.90;;;8.15;90.82;100164.47;5010611;28;20529;-82
2021/04/10 01:44:21;;;;;;;32.45;23.05;;;6.90;99.90;;;8.14;90.93;100156.47;4994295;28;20026;-82
2021/04/10 01:46:51;;;;;;;33.25;22.70;;;6.90;99.90;;;8.12;91.19;100161.59;4994478;28;20105;-82
2021/04/10 01:49:17;;;;;;;34.88;23.83;;;6.90;99.90;;;8.10;91.20;100159.16;4995615;28;20169;-83
2021/04/10 01:51:45;;;;;;;36.55;23.50;;;6.90;99.90;;;8.10;91.45;100159.16;5010443;28;20062;-82
2021/04/10 01:54:14;;;;;;;34.83;22.80;;;6.90;99.90;;;8.11;91.39;100159.97;5022706;28;20033;-82
2021/04/10 01:56:47;;;;;;;32.17;21.92;;;6.90;99.90;;;8.10;91.58;100159.16;5024724;28;20509;-83
2021/04/10 01:59:17;;;;;;;31.20;22.27;;;6.90;99.90;;;8.13;91.33;100157.63;5013484;28;20384;-82
2021/04/10 02:01:50;;;;;;;35.95;22.70;;;6.80;99.90;;;8.15;91.17;100149.75;5029850;28;20094;-82
2021/04/10 02:04:18;;;;;;;30.63;22.00;;;6.90;99.90;;;8.27;90.86;100153.28;5029734;28;20034;-83
2021/04/10 02:06:47;;;;;;;33.33;23.85;;;6.80;99.90;;;8.14;91.52;100162.03;5029896;28;20030;-83
2021/04/10 02:09:16;;;;;;;36.78;23.38;;;6.90;99.90;;;8.14;91.34;100162.84;5014187;28;20386;-82
2021/04/10 02:11:51;;;;;;;31.55;23.38;;;6.90;99.90;;;8.14;91.50;100173.16;4993019;28;20049;-82
2021/04/10 02:14:21;;;;;;;34.95;23.33;;;6.90;99.90;;;8.16;91.17;100177.19;5009343;28;20472;-82
2021/04/10 02:16:48;;;;;;;35.22;23.40;;;6.90;99.90;;;8.17;91.29;100172.44;5003939;28;20345;-82
2021/04/10 02:19:16;;;;;;;30.70;23.13;;;6.90;99.90;;;8.14;91.38;100171.19;5020173;28;20339;-82
2021/04/10 02:21:42;;;;;;;36.60;25.27;;;6.90;99.90;;;8.17;91.34;100161.31;5028626;28;20434;-82
2021/04/10 02:24:13;;;;;;;33.13;22.98;;;6.90;99.90;;;8.31;90.45;100162.59;5028664;28;20494;-82
2021/04/10 02:26:39;;;;;;;35.85;23.38;;;6.90;99.90;;;8.22;90.82;100164.66;5028818;28;20029;-81
2021/04/10 02:29:05;;;;;;;29.52;21.42;;;6.90;99.90;;;8.19;90.89;100164.56;5028534;28;20088;-82
2021/04/10 02:32:01;;;;;;;30.38;21.92;;;6.90;99.90;;;8.19;91.21;100168.16;5027507;28;20026;-82
2021/04/10 02:34:38;;;;;;;33.35;23.23;;;6.90;99.90;;;8.18;90.97;100168.53;5023806;28;20025;-84
2021/04/10 02:37:07;;;;;;;35.70;23.83;;;6.90;99.90;;;8.16;91.30;100173.59;5009530;28;20053;-83
2021/04/10 02:39:39;;;;;;;37.25;25.80;;;7.00;99.90;;;8.16;91.43;100163.28;5009094;28;20040;-82
2021/04/10 02:42:10;;;;;;;40.60;25.48;;;6.90;99.90;;;8.32;90.46;100166.16;5009810;28;20031;-82
2021/04/10 02:44:48;;;;;;;38.65;25.15;;;6.90;99.90;;;8.34;90.57;100167.44;5008433;28;20034;-82
2021/04/10 02:47:22;;;;;;;33.17;23.52;;;6.90;99.90;;;8.34;90.09;100167.44;5008759;28;20410;-83
2021/04/10 02:49:56;;;;;;;31.77;22.98;;;6.90;99.90;;;8.34;90.14;100175.78;5008652;28;20058;-82
2021/04/10 02:52:47;;;;;;;34.33;24.13;;;6.90;99.90;;;8.31;90.75;100176.50;4992478;28;20383;-84
2021/04/10 02:55:26;;;;;;;32.97;21.92;;;6.90;99.90;;;8.31;90.73;100179.28;5008617;28;20071;-82
2021/04/10 02:57:55;;;;;;;32.90;22.77;;;6.90;99.90;;;8.19;91.41;100181.25;5008397;28;20134;-83
2021/04/10 03:00:24;;;;;;;29.58;21.88;;;6.90;99.90;;;8.18;91.61;100174.09;4992088;28;20023;-82
2021/04/10 03:02:50;;;;;;;35.20;24.52;;;6.90;99.90;;;8.18;91.87;100171.31;4992051;28;20027;-83
2021/04/10 03:05:17;;;;;;;42.45;29.17;;;6.90;99.90;;;8.14;92.78;100157.28;5018901;28;20037;-82
2021/04/10 03:07:49;;;;;;;43.33;28.88;;;6.90;99.90;;;8.11;93.59;100143.28;5015444;28;20031;-82
2021/04/10 03:10:16;;;;;;;45.95;30.88;;;6.90;99.90;;;8.14;93.12;100148.13;4993231;28;20033;-82
2021/04/10 03:12:47;;;;;;;45.63;30.88;;;6.90;99.90;;;8.19;93.09;100167.34;5008072;28;20037;-82
2021/04/10 03:15:16;;;;;;;52.72;31.77;;;6.90;99.90;;;8.29;92.40;100176.03;5008234;28;20077;-81
2021/04/10 03:17:45;;;;;;;40.58;29.10;;;6.90;99.90;;;8.32;92.69;100166.16;4993265;28;20030;-83
2021/04/10 03:20:17;;;;;;;37.67;27.73;;;7.00;99.90;;;8.42;92.08;100174.81;4993570;28;20022;-85
2021/04/10 03:22:46;;;;;;;39.17;26.98;;;7.00;99.90;;;8.45;91.87;100176.88;4993191;28;20161;-82
2021/04/10 03:25:14;;;;;;;37.45;24.77;;;7.00;99.90;;;8.40;91.79;100182.72;4993005;28;20084;-82
2021/04/10 03:27:43;;;;;;;37.58;27.00;;;7.00;99.90;;;8.33;91.91;100196.41;5008110;28;20030;-83
2021/04/10 03:30:13;;;;;;;35.20;24.45;;;6.90;99.90;;;8.32;91.85;100191.19;4993056;28;20041;-82
2021/04/10 03:32:43;;;;;;;42.60;28.40;;;6.90;99.90;;;8.35;92.07;100193.28;4993013;28;20450;-83
2021/04/10 03:35:10;;;;;;;43.53;30.08;;;6.80;99.90;;;8.35;92.03;100196.06;5007965;28;20363;-81
2021/04/10 03:37:36;;;;;;;39.33;29.05;;;6.90;99.90;;;8.29;92.65;100203.84;5009085;28;20088;-82
2021/04/10 03:40:06;;;;;;;42.97;28.13;;;6.80;99.90;;;8.30;92.33;100199.09;5008287;28;20033;-81
2021/04/10 03:42:43;;;;;;;43.03;28.15;;;6.80;99.90;;;8.31;92.71;100209.06;5008763;28;20482;-82
2021/04/10 03:45:20;;;;;;;36.15;25.73;;;6.80;99.90;;;8.30;92.32;100216.59;5014965;28;20022;-79
2021/04/10 03:47:47;;;;;;;42.17;28.55;;;6.80;99.90;;;8.32;92.29;100216.25;5032760;28;20096;-83
2021/04/10 03:50:13;;;;;;;39.38;28.80;;;6.80;99.90;;;8.33;92.71;100224.25;5014890;28;20427;-84
2021/04/10 03:52:40;;;;;;;42.38;31.13;;;6.80;99.90;;;8.30;93.26;100216.59;5003739;28;20044;-84
2021/04/10 03:55:11;;;;;;;40.38;28.77;;;6.90;99.90;;;8.30;92.77;100215.78;5025045;28;20029;-84
2021/04/10 03:57:37;;;;;;;44.97;30.98;;;6.80;99.90;;;8.33;93.12;100227.03;5011023;28;20073;-84
2021/04/10 04:00:05;;;;;;;43.55;30.40;;;6.90;99.90;;;8.41;93.08;100219.72;5012544;28;20490;-82
2021/04/10 04:02:32;;;;;;;41.38;29.05;;;6.90;99.90;;;8.44;92.74;100217.00;5012592;28;20046;-84
2021/04/10 04:04:58;;;;;;;47.55;32.00;;;6.90;99.90;;;8.36;93.15;100209.63;5013155;28;20087;-83
2021/04/10 04:07:23;;;;;;;52.03;32.63;;;6.90;99.90;;;8.35;93.03;100210.78;5013280;28;20025;-84
2021/04/10 04:09:49;;;;;;;50.33;32.00;;;6.90;99.90;;;8.37;93.18;100221.56;5027797;28;20026;-84
2021/04/10 04:12:15;;;;;;;43.22;30.77;;;6.90;99.90;;;8.43;92.58;100225.72;5012639;28;20104;-84
2021/04/10 04:14:41;;;;;;;47.03;30.45;;;6.90;99.90;;;8.41;92.27;100214.94;5027403;28;20064;-82
2021/04/10 04:17:08;;;;;;;44.78;30.02;;;6.90;99.90;;;8.47;92.31;100232.19;5011743;28;20064;-84
2021/04/10 04:19:35;;;;;;;44.42;31.17;;;6.90;99.90;;;8.48;92.33;100225.44;5027232;28;20375;-84
2021/04/10 04:22:04;;;;;;;43.63;31.10;;;6.90;99.90;;;8.49;91.51;100229.88;5027529;28;20038;-84
2021/04/10 04:24:30;;;;;;;45.08;31.20;;;7.00;99.90;;;8.46;92.01;100225.00;5011926;28;20036;-83
2021/04/10 04:26:58;;;;;;;43.22;32.22;;;7.00;99.90;;;8.48;91.28;100226.25;5027173;28;20034;-84
2021/04/10 04:29:24;;;;;;;48.78;31.25;;;7.00;99.90;;;8.37;91.00;100227.13;5028256;28;20075;-83
2021/04/10 04:31:50;;;;;;;43.60;30.17;;;6.90;99.90;;;8.24;89.52;100234.69;5027952;28;20125;-83
2021/04/10 04:34:15;;;;;;;47.70;29.98;;;6.90;99.90;;;8.23;88.05;100241.41;5032888;28;20107;-82
2021/04/10 04:36:41;;;;;;;43.20;30.38;;;6.90;99.90;;;8.24;88.41;100245.00;5039458;28;20528;-87
2021/04/10 04:39:07;;;;;;;38.70;27.90;;;6.80;99.90;;;8.28;87.87;100249.53;5034846;28;20034;-82
2021/04/10 04:41:33;;;;;;;43.75;28.77;;;6.80;99.90;;;8.24;88.06;100247.78;5016346;28;20029;-86
2021/04/10 04:43:59;;;;;;;44.33;30.60;;;6.90;99.90;;;8.18;87.55;100240.84;5026673;28;20505;-85
2021/04/10 04:46:25;;;;;;;42.08;29.42;;;6.80;99.90;;;8.30;87.46;100257.53;5012195;28;20034;-84
2021/04/10 04:48:51;;;;;;;44.47;30.02;;;6.80;99.90;;;8.29;87.14;100255.91;5010787;28;20096;-84
2021/04/10 04:51:19;;;;;;;37.42;27.30;;;6.80;99.90;;;8.32;88.06;100269.91;5011341;28;20441;-84
2021/04/10 04:53:45;;;;;;;41.80;29.17;;;6.80;99.90;;;8.14;88.11;100263.00;5027540;28;20033;-84
2021/04/10 04:56:11;;;;;;;42.83;31.02;;;6.80;99.90;;;8.06;88.58;100266.69;5027500;28;20022;-84
2021/04/10 04:58:37;;;;;;;44.88;30.35;;;6.90;99.90;;;8.07;89.08;100262.75;5027661;28;20030;-84
2021/04/10 05:01:03;;;;;;;42.03;31.30;;;6.80;99.90;;;8.12;88.76;100258.94;5021941;28;20062;-86
2021/04/10 05:03:29;;;;;;;49.97;33.00;;;6.90;99.90;;;8.08;89.19;100274.72;5016278;28;20034;-82
2021/04/10 05:05:55;;;;;;;46.45;31.58;;;6.90;99.90;;;8.04;88.83;100266.25;5027764;28;20030;-84
2021/04/10 05:08:21;;;;;;;43.47;29.10;;;6.90;99.90;;;8.04;88.77;100257.91;5003176;28;20113;-84
2021/04/10 05:10:46;;;;;;;45.58;30.88;;;6.80;99.90;;;8.10;88.44;100264.03;5021909;28;20042;-83
2021/04/10 05:13:12;;;;;;;39.28;29.00;;;6.80;99.90;;;8.09;88.08;100260.44;5014900;28;20033;-85
2021/04/10 05:15:38;;;;;;;45.08;30.08;;;6.80;99.90;;;8.03;88.52;100267.41;5015341;28;20060;-85
2021/04/10 05:18:05;;;;;;;43.05;29.20;;;6.80;99.90;;;8.04;88.37;100271.00;5015439;28;20474;-85
2021/04/10 05:20:31;;;;;;;43.75;29.95;;;6.80;99.90;;;8.05;88.62;100273.44;5015664;28;20026;-84
2021/04/10 05:22:57;;;;;;;41.75;29.02;;;6.80;99.90;;;8.04;88.78;100287.69;5031199;28;20030;-85
2021/04/10 05:25:24;;;;;;;44.60;28.65;;;6.80;99.90;;;8.04;88.83;100284.91;5031711;28;20100;-83
2021/04/10 05:27:52;;;;;;;44.97;30.70;;;6.80;99.90;;;8.01;88.89;100286.44;5016050;28;20029;-84
2021/04/10 05:30:19;;;;;;;41.63;28.95;;;6.80;99.90;;;8.02;88.67;100276.94;5031649;28;20028;-83
2021/04/10 05:32:46;;;;;;;41.90;30.48;;;6.80;99.90;;;8.00;89.04;100270.06;5015986;28;20109;-82
2021/04/10 05:35:14;;;;;;;43.33;29.25;;;6.80;99.90;;;7.95;88.55;100274.75;5031229;28;20061;-84
2021/04/10 05:37:40;;;;;;;41.65;27.75;;;6.80;99.90;;;7.99;88.59;100283.19;5015387;28;20108;-83
2021/04/10 05:40:07;;;;;;;43.20;28.10;;;6.70;99.90;;;7.96;88.60;100284.69;5015001;28;20172;-83
2021/04/10 05:42:33;;;;;;;45.67;29.67;;;6.70;99.90;;;7.90;88.99;100310.28;5032235;28;20106;-81
2021/04/10 05:44:59;;;;;;;43.35;29.67;;;6.70;99.90;;;7.92;88.52;100305.22;5031645;28;20084;-83
2021/04/10 05:47:26;;;;;;;45.17;30.65;;;6.70;99.90;;;7.89;88.80;100305.91;5031811;28;20368;-83
2021/04/10 05:49:52;;;;;;;47.78;30.58;;;6.70;99.90;;;7.91;88.65;100301.59;5031305;28;20033;-80
2021/04/10 05:52:18;;;;;;;47.03;29.85;;;6.70;99.90;;;7.95;88.93;100308.09;5029792;28;20030;-82
2021/04/10 05:54:44;;;;;;;43.78;28.45;;;6.70;99.90;;;7.99;89.10;100313.78;5030058;28;20041;-82
2021/04/10 05:57:10;;;;;;;41.40;28.77;;;6.70;99.90;;;8.05;88.58;100315.16;5029892;28;20149;-81
2021/04/10 05:59:36;;;;;;;44.13;30.52;;;6.80;99.90;;;8.07;89.26;100307.28;5027873;28;20026;-82
2021/04/10 06:02:06;;;;;;;41.53;28.77;;;6.80;99.90;;;8.18;88.45;100318.75;5040540;28;20018;-80
2021/04/10 06:04:36;;;;;;;47.92;28.67;;;6.80;99.90;;;8.22;87.84;100320.44;5047585;28;20084;-81
2021/04/10 06:07:03;;;;;;;38.50;27.20;;;6.90;99.90;;;8.13;88.00;100319.78;5013253;28;20038;-83
2021/04/10 06:09:29;;;;;;;41.30;27.73;;;6.90;99.90;;;8.15;88.34;100322.22;5029977;28;20115;-81
2021/04/10 06:11:56;;;;;;;45.22;26.85;;;6.90;99.90;;;8.18;87.87;100325.13;5026692;28;20444;-84
2021/04/10 06:14:22;;;;;;;39.03;26.38;;;6.90;99.90;;;8.16;87.82;100319.06;5011394;28;20026;-83
2021/04/10 06:16:50;;;;;;;44.20;26.27;;;6.90;99.90;;;8.17;87.71;100326.28;4994913;28;20054;-83
2021/04/10 06:19:18;;;;;;;43.90;26.67;;;6.90;99.90;;;8.24;88.12;100325.69;4994926;28;20038;-82
2021/04/10 06:21:45;;;;;;;42.10;26.88;;;6.90;99.90;;;8.21;87.68;100324.41;5009705;28;20066;-80
2021/04/10 06:24:15;;;;;;;45.80;27.42;;;7.00;99.90;;;8.21;87.85;100329.97;4995034;28;20045;-83
2021/04/10 06:26:45;;;;;;;42.47;27.95;;;7.00;99.90;;;8.22;87.97;100326.00;5011263;28;20026;-82
2021/04/10 06:29:12;;;;;;;44.08;28.13;;;7.00;99.90;;;8.31;87.73;100328.72;5008990;28;20034;-81
2021/04/10 06:31:40;;;;;;;47.45;28.67;;;7.10;99.90;;;8.26;87.76;100326.94;5009648;28;20027;-85
2021/04/10 06:34:07;;;;;;;46.83;28.95;;;7.10;99.90;;;8.29;87.69;100325.47;5003672;28;20061;-83
2021/04/10 06:36:34;;;;;;;46.92;29.15;;;7.10;99.90;;;8.43;87.13;100326.72;5007547;28;20022;-83
2021/04/10 06:39:00;;;;;;;44.88;28.85;;;7.10;99.90;;;8.48;86.74;100334.00;5013842;28;20025;-82
2021/04/10 06:41:27;;;;;;;47.83;28.92;;;7.20;99.90;;;8.63;86.83;100341.63;5015141;28;20437;-83
2021/04/10 06:43:53;;;;;;;46.08;27.70;;;7.30;99.90;;;8.59;86.19;100340.72;5014181;28;20043;-82
2021/04/10 06:46:23;;;;;;;45.63;27.00;;;7.30;99.90;;;8.60;86.04;100347.91;5030722;28;20375;-81
2021/04/10 06:48:57;;;;;;;39.75;25.95;;;7.30;99.90;;;8.63;85.83;100358.34;5013985;28;20079;-85
2021/04/10 06:51:24;;;;;;;42.08;26.70;;;7.30;99.90;;;8.44;86.14;100345.03;5012670;28;20041;-85
2021/04/10 06:53:54;;;;;;;44.38;28.73;;;7.30;99.90;;;8.46;86.71;100353.03;5013860;28;20470;-84
2021/04/10 06:56:35;;;;;;;44.47;29.08;;;7.30;99.90;;;8.57;86.02;100350.59;5029334;28;20029;-83
2021/04/10 06:59:15;;;;;;;46.65;29.10;;;7.30;99.90;;;8.60;85.80;100353.47;5013917;28;20048;-82
2021/04/10 07:01:42;;;;;;;45.38;29.70;;;7.30;99.90;;;8.62;85.55;100361.47;5013729;28;20090;-84
2021/04/10 07:04:11;;;;;;;44.65;29.50;;;7.30;99.90;;;8.57;85.28;100356.97;5013643;28;20064;-82
2021/04/10 07:06:39;;;;;;;46.22;30.55;;;7.40;99.90;;;8.50;85.97;100351.19;5029208;28;20034;-83
2021/04/10 07:09:06;;;;;;;46.00;29.63;;;7.40;99.90;;;8.61;86.21;100362.59;4997987;28;20057;-82
2021/04/10 07:11:33;;;;;;;44.17;29.63;;;7.40;99.90;;;8.71;86.01;100362.94;4992115;28;20050;-81
2021/04/10 07:14:01;;;;;;;48.67;30.25;;;7.50;99.90;;;8.70;85.83;100360.53;5006164;28;20041;-81
2021/04/10 07:16:37;;;;;;;51.53;30.52;;;7.40;99.90;;;8.67;85.45;100373.16;5028497;28;20037;-82
2021/04/10 07:19:13;;;;;;;44.88;27.52;;;7.40;99.90;;;8.70;85.57;100369.66;5013304;28;20431;-83
2021/04/10 07:21:42;;;;;;;47.67;28.38;;;7.40;99.90;;;8.78;85.74;100370.69;5012937;28;20117;-82
2021/04/10 07:24:08;;;;;;;43.42;25.95;;;7.50;99.90;;;8.75;85.79;100371.41;5010709;28;20168;-85
2021/04/10 07:26:55;;;;;;;42.72;26.35;;;7.50;99.90;;;8.60;86.54;100378.53;5013838;28;20588;-82
2021/04/10 07:29:49;;;;;;;;;;;7.40;99.90;;;8.67;85.65;100375.16;5029223;28;20041;-82
2021/04/10 07:32:38;;;;;;;42.55;24.05;;;7.40;99.90;;;8.64;85.41;100375.81;5013039;28;19914;-81
2021/04/10 07:35:09;;;;;;;46.97;24.38;;;7.40;99.90;;;8.57;85.76;100368.09;5028252;28;20022;-83
2021/04/10 07:37:42;;;;;;;41.80;21.90;;;7.30;99.90;;;8.48;85.73;100372.97;5028618;28;20030;-83
2021/04/10 07:40:26;;;;;;;39.67;22.33;;;7.20;99.90;;;8.47;85.65;100376.94;5011494;28;20018;-84
2021/04/10 07:43:03;;;;;;;39.70;21.35;;;7.20;99.90;;;8.44;85.66;100374.84;4999732;28;20034;-82
2021/04/10 07:45:35;;;;;;;35.60;20.10;;;7.20;99.90;;;8.35;86.00;100380.53;5010706;28;20331;-85
2021/04/10 07:48:07;;;;;;;32.15;20.70;;;7.20;99.90;;;8.35;85.87;100374.13;5010434;28;20037;-85
2021/04/10 07:50:35;;;;;;;32.50;19.65;;;7.10;99.90;;;8.14;86.33;100370.66;5010283;28;20047;-81
2021/04/10 07:53:39;;;;;;;40.47;20.67;;;7.00;99.90;;;8.29;86.24;100375.53;5002604;28;20022;-82
2021/04/10 07:56:05;;;;;;;31.90;18.40;;;7.10;99.90;;;8.36;85.67;100384.94;4972452;28;20466;-83
2021/04/10 07:58:37;;;;;;;31.00;17.63;;;7.10;99.90;;;8.55;84.87;100384.31;4955754;28;20026;-83
2021/04/10 08:01:09;;;;;;;32.13;19.48;;;7.20;99.90;;;8.36;84.74;100381.34;4982086;28;20042;-82
2021/04/10 08:03:51;;;;;;;33.63;18.73;;;7.20;99.90;;;8.37;84.63;100391.31;5003685;28;20053;-81
2021/04/10 08:06:20;;;;;;;27.92;17.15;;;7.20;99.90;;;8.35;84.51;100386.09;5010942;28;20029;-85
2021/04/10 08:09:00;;;;;;;31.33;17.88;;;7.20;99.90;;;8.44;83.96;100385.97;5016485;28;20114;-83
2021/04/10 08:11:45;;;;;;;26.48;16.48;;;7.20;99.90;;;8.55;83.51;100389.88;5007947;28;20034;-82
2021/04/10 08:14:14;;;;;;;29.65;15.90;;;7.30;99.90;;;8.64;83.71;100393.34;4992451;28;20372;-81
2021/04/10 08:16:53;;;;;;;26.73;15.45;;;7.30;99.90;;;8.68;82.98;100391.50;4995422;28;20027;-85
2021/04/10 08:19:32;;;;;;;26.52;15.55;;;7.50;99.90;;;9.05;82.40;100399.75;5004660;28;20034;-84
2021/04/10 08:21:59;;;;;;;29.90;16.30;;;7.70;99.90;;;9.36;81.09;100380.31;5024149;28;20030;-82
2021/04/10 08:24:33;;;;;;;30.00;16.15;;;8.00;99.90;;;9.81;79.02;100391.91;4993419;28;20039;-83
2021/04/10 08:27:05;;;;;;;23.90;14.82;;;8.40;99.90;;;10.12;77.77;100390.25;4993232;28;20042;-83
2021/04/10 08:29:33;;;;;;;25.63;15.18;;;8.70;99.90;;;10.34;75.35;100392.44;5008462;28;20524;-83
2021/04/10 08:32:01;;;;;;;22.13;14.65;;;9.00;99.90;;;10.47;76.23;100389.16;5008198;28;20035;-84
2021/04/10 08:34:27;;;;;;;25.08;13.30;;;9.10;99.90;;;10.53;74.98;100398.09;5007892;28;20038;-85
2021/04/10 08:37:07;;;;;;;23.70;16.10;;;9.20;99.90;;;10.66;74.27;100401.56;4991770;28;20410;-82
2021/04/10 08:39:45;;;;;;;22.13;13.35;;;9.30;99.90;;;10.81;73.66;100403.50;4993133;28;20469;-82
2021/04/10 08:42:16;;;;;;;24.88;16.85;;;9.40;99.90;;;10.72;74.74;100406.50;5012333;28;20030;-85
2021/04/10 08:44:49;;;;;;;33.65;17.98;;;9.40;99.90;;;10.84;73.96;100397.97;5012327;28;20065;-85
2021/04/10 08:47:19;;;;;;;29.30;15.52;;;9.50;99.90;;;11.07;74.27;100404.47;5012084;28;20048;-82
2021/04/10 08:49:50;;;;;;;34.53;18.42;;;9.70;99.90;;;11.35;74.27;100403.44;5012406;28;20113;-81
2021/04/10 08:52:30;;;;;;;31.10;19.75;;;10.00;99.90;;;11.47;72.94;100401.28;4997073;28;20033;-83
2021/04/10 08:55:00;;;;;;;30.98;19.35;;;10.10;99.90;;;11.79;72.36;100396.31;5012704;28;20501;-85
2021/04/10 08:57:42;;;;;;;31.95;18.38;;;10.40;99.90;;;12.02;69.87;100407.50;5012638;28;20042;-85
2021/04/10 09:00:30;;;;;;;29.67;18.23;;;10.60;99.90;;;11.73;70.17;100408.19;5012544;28;20505;-82
2021/04/10 09:03:00;;;;;;;29.65;18.92;;;10.50;99.90;;;11.53;71.05;100401.78;5012690;28;20117;-83
2021/04/10 09:05:52;;;;;;;37.05;21.92;;;10.40;99.90;;;11.49;72.63;100407.28;5012197;28;20026;-80
2021/04/10 09:08:28;;;;;;;40.03;23.48;;;10.30;99.90;;;11.67;72.80;100401.25;5004683;28;20037;-83
2021/04/10 09:10:59;;;;;;;33.38;20.05;;;10.40;99.90;;;11.77;71.25;100409.88;5016591;28;20061;-83
2021/04/10 09:13:29;;;;;;;35.70;21.30;;;10.40;99.90;;;12.01;69.45;100415.09;5032174;28;20053;-85
2021/04/10 09:16:21;;;;;;;33.03;22.08;;;10.50;99.90;;;12.13;70.03;100417.72;5032430;28;20032;-87
2021/04/10 09:19:10;;;;;;;35.50;21.48;;;10.60;99.90;;;11.97;70.15;100414.25;5026935;28;20490;-82
2021/04/10 09:21:50;;;;;;;31.23;22.17;;;10.70;99.90;;;12.18;69.61;100421.38;5030525;28;20042;-83
2021/04/10 09:24:37;;;;;;;30.48;20.30;;;10.80;99.90;;;11.97;69.69;100422.63;5015243;28;20033;-82
2021/04/10 09:27:18;;;;;;;35.33;22.40;;;10.80;99.90;;;11.91;70.63;100421.31;5030276;28;20529;-83
2021/04/10 09:30:14;;;;;;;39.05;23.95;;;10.70;99.90;;;12.04;69.23;100419.94;5016270;28;20121;-85
2021/04/10 09:32:46;;;;;;;38.95;23.77;;;10.60;99.90;;;11.74;71.03;100421.00;5009452;28;20042;-80
2021/04/10 09:35:20;;;;;;;37.90;25.13;;;10.50;99.90;;;11.97;70.19;100417.03;5014975;28;20053;-83
2021/04/10 09:37:54;;;;;;;37.95;25.10;;;10.50;99.90;;;12.12;69.98;100420.88;5016056;28;20030;-83
2021/04/10 09:40:47;;;;;;;34.63;22.98;;;10.50;99.90;;;11.98;69.83;100415.03;5016886;28;20026;-82
2021/04/10 09:43:14;;;;;;;38.08;24.92;;;10.50;99.90;;;11.95;70.51;100413.78;5031926;28;20030;-85
2021/04/10 09:45:41;;;;;;;39.72;25.27;;;10.60;99.90;;;11.85;70.49;100425.59;5018145;28;20060;-84
2021/04/10 09:48:10;;;;;;;35.33;21.30;;;10.60;99.90;;;11.73;70.84;100422.16;5016756;28;20026;-82
2021/04/10 09:50:58;;;;;;;36.92;22.55;;;10.60;99.90;;;11.79;70.52;100420.69;5016054;28;20026;-83
2021/04/10 09:53:28;;;;;;;37.28;24.42;;;10.40;99.90;;;11.80;70.76;100413.91;5029185;28;20075;-86
2021/04/10 09:56:08;;;;;;;37.42;24.42;;;10.50;99.90;;;11.83;70.24;100413.16;5007349;28;20434;-83
2021/04/10 09:58:44;;;;;;;39.80;24.02;;;10.40;99.90;;;11.68;70.82;100417.66;5032005;28;20022;-83
2021/04/10 10:01:20;;;;;;;39.20;24.73;;;10.40;99.90;;;11.80;70.51;100416.72;5017693;28;20030;-82
2021/04/10 10:03:50;;;;;;;38.42;25.17;;;10.40;99.90;;;11.72;72.22;100418.56;5033115;28;20129;-85
2021/04/10 10:06:35;;;;;;;44.90;26.17;;;10.40;99.90;;;11.73;71.87;100413.78;5018190;28;20029;-84
2021/04/10 10:09:20;;;;;;;47.38;24.40;;;10.40;99.90;;;11.86;70.88;100418.81;5019100;28;20058;-83
2021/04/10 10:11:53;;;;;;;38.33;24.10;;;10.50;99.90;;;12.03;71.10;100420.31;5012031;28;20124;-83
2021/04/10 10:14:19;;;;;;;40.42;26.50;;;10.50;99.90;;;11.78;71.10;100411.50;4996088;28;20038;-86
2021/04/10 10:16:45;;;;;;;38.17;25.83;;;10.50;99.90;;;11.80;71.50;100409.13;5011221;28;20041;-81
2021/04/10 10:19:19;;;;;;;39.88;25.63;;;10.40;99.90;;;11.76;71.23;100401.84;4995194;28;20053;-86
2021/04/10 10:21:46;;;;;;;36.53;25.27;;;10.40;99.90;;;11.79;71.28;100413.09;5010026;28;20038;-80
2021/04/10 10:24:21;;;;;;;38.83;25.52;;;10.40;99.90;;;12.03;71.36;100400.72;4994605;28;20410;-84
2021/04/10 10:26:47;;;;;;;31.50;23.38;;;10.60;99.90;;;12.39;70.68;100402.13;5010643;28;20077;-84
2021/04/10 10:29:19;;;;;;;39.67;25.17;;;10.70;99.90;;;11.91;71.64;100390.53;4995356;28;20075;-85